Time;durP1;ratioP1;P1;durP2;ratioP2;P2;SDS_P1;SDS_P2;PMS_P1;PMS_P2;Temp;Humidity;BMP_temperature;BMP_pressure;BME280_temperature;BME280_humidity;BME280_pressure;Samples;Min_cycle;Max_cycle;Signal;HPM_P1;HPM_P2
2023/10/20 00:01:57;;;;;;;0.50;0.50;;;;;;;;;;5004700;28;20561;-85
2023/10/20 00:04:24;;;;;;;0.60;0.60;;;;;;;;;;5005226;28;20577;-86
2023/10/20 00:06:50;;;;;;;0.60;0.60;;;;;;;;;;5002828;28;20219;-85
2023/10/20 00:09:16;;;;;;;0.50;0.50;;;;;;;;;;5003014;28;20643;-85
2023/10/20 00:11:43;;;;;;;0.50;0.50;;;;;;;;;;5004103;28;20597;-85
2023/10/20 00:14:09;;;;;;;0.43;0.43;;;;;;;;;;5019941;28;20211;-84
2023/10/20 00:16:35;;;;;;;0.50;0.50;;;;;;;;;;5023233;28;20231;-84
2023/10/20 00:19:01;;;;;;;0.60;0.60;;;;;;;;;;5010662;28;20704;-85
2023/10/20 00:21:27;;;;;;;0.60;0.60;;;;;;;;;;5003293;28;20231;-85
2023/10/20 00:23:53;;;;;;;0.60;0.60;;;;;;;;;;5003555;28;20666;-85
2023/10/20 00:26:19;;;;;;;0.50;0.50;;;;;;;;;;5001638;28;20220;-85
2023/10/20 00:28:45;;;;;;;0.50;0.50;;;;;;;;;;5002853;28;20185;-85
2023/10/20 00:31:11;;;;;;;0.40;0.40;;;;;;;;;;5002664;28;20278;-86
2023/10/20 00:33:38;;;;;;;0.40;0.40;;;;;;;;;;4998464;28;20216;-86
2023/10/20 00:36:04;;;;;;;0.50;0.50;;;;;;;;;;4998026;28;20197;-86
2023/10/20 00:38:31;;;;;;;0.50;0.50;;;;;;;;;;4998545;28;20196;-86
2023/10/20 00:40:57;;;;;;;0.50;0.50;;;;;;;;;;4997236;28;20181;-86
2023/10/20 00:43:33;;;;;;;0.50;0.50;;;;;;;;;;4999862;28;20169;-86
2023/10/20 00:45:59;;;;;;;0.40;0.40;;;;;;;;;;5001004;28;20264;-86
2023/10/20 00:48:25;;;;;;;0.40;0.40;;;;;;;;;;5008179;28;20181;-85
2023/10/20 00:50:51;;;;;;;0.40;0.40;;;;;;;;;;5012373;28;20178;-84
2023/10/20 00:53:18;;;;;;;0.53;0.53;;;;;;;;;;5016123;28;20181;-85
2023/10/20 00:55:44;;;;;;;0.50;0.50;;;;;;;;;;5011124;28;20757;-85
2023/10/20 00:58:11;;;;;;;0.60;0.60;;;;;;;;;;4998838;28;20678;-85
2023/10/20 01:00:37;;;;;;;0.50;0.50;;;;;;;;;;4996897;28;20327;-85
2023/10/20 01:03:04;;;;;;;0.50;0.50;;;;;;;;;;4996527;28;20181;-85
2023/10/20 01:05:30;;;;;;;0.40;0.40;;;;;;;;;;4996705;28;20213;-86
2023/10/20 01:07:56;;;;;;;0.50;0.50;;;;;;;;;;4996059;28;20224;-85
2023/10/20 01:10:23;;;;;;;0.60;0.60;;;;;;;;;;4996831;28;20561;-85
2023/10/20 01:12:49;;;;;;;0.50;0.50;;;;;;;;;;4997201;28;20181;-85
2023/10/20 01:15:16;;;;;;;0.50;0.50;;;;;;;;;;4998273;28;20213;-85
2023/10/20 01:17:42;;;;;;;0.40;0.40;;;;;;;;;;5018994;28;20180;-84
2023/10/20 01:20:08;;;;;;;0.50;0.50;;;;;;;;;;5015885;28;20223;-86
2023/10/20 01:22:34;;;;;;;0.50;0.50;;;;;;;;;;4996341;28;20180;-86
2023/10/20 01:25:01;;;;;;;0.40;0.40;;;;;;;;;;4996235;28;20196;-86
2023/10/20 01:27:27;;;;;;;0.50;0.50;;;;;;;;;;4996362;28;20225;-86
2023/10/20 01:29:53;;;;;;;0.40;0.40;;;;;;;;;;4995951;28;20191;-86
2023/10/20 01:32:19;;;;;;;0.60;0.60;;;;;;;;;;4996451;28;20284;-86
2023/10/20 01:34:46;;;;;;;0.50;0.50;;;;;;;;;;4994131;28;20228;-85
2023/10/20 01:37:14;;;;;;;0.50;0.50;;;;;;;;;;4995534;28;20522;-86
2023/10/20 01:39:41;;;;;;;0.50;0.50;;;;;;;;;;4994624;28;20260;-85
2023/10/20 01:42:07;;;;;;;0.40;0.40;;;;;;;;;;4996185;28;20212;-85
2023/10/20 01:44:34;;;;;;;0.40;0.40;;;;;;;;;;4995030;28;20256;-85
2023/10/20 01:47:00;;;;;;;0.50;0.50;;;;;;;;;;4995966;28;20524;-85
2023/10/20 01:49:26;;;;;;;0.47;0.47;;;;;;;;;;4995847;28;20276;-86
2023/10/20 01:51:52;;;;;;;0.50;0.50;;;;;;;;;;4996364;28;20205;-86
2023/10/20 01:54:17;;;;;;;0.50;0.50;;;;;;;;;;4995278;28;20220;-85
2023/10/20 01:56:43;;;;;;;0.43;0.43;;;;;;;;;;4994773;28;20804;-85
2023/10/20 01:59:10;;;;;;;0.50;0.50;;;;;;;;;;4994673;28;20170;-85
2023/10/20 02:01:37;;;;;;;0.40;0.40;;;;;;;;;;4996818;28;20188;-86
2023/10/20 02:04:03;;;;;;;0.40;0.40;;;;;;;;;;4996159;28;20193;-86
2023/10/20 02:06:29;;;;;;;0.40;0.40;;;;;;;;;;4994713;28;20579;-86
2023/10/20 02:08:55;;;;;;;0.60;0.60;;;;;;;;;;4996226;28;20192;-85
2023/10/20 02:11:21;;;;;;;0.40;0.40;;;;;;;;;;4995764;28;20184;-85
2023/10/20 02:13:47;;;;;;;0.50;0.50;;;;;;;;;;4994390;28;20259;-86
2023/10/20 02:16:13;;;;;;;0.50;0.50;;;;;;;;;;5001510;28;20185;-83
2023/10/20 02:18:39;;;;;;;0.50;0.50;;;;;;;;;;5018470;28;20186;-83
2023/10/20 02:21:07;;;;;;;0.50;0.50;;;;;;;;;;5018170;28;20180;-83
2023/10/20 02:23:40;;;;;;;0.50;0.50;;;;;;;;;;5018254;28;20188;-85
2023/10/20 02:26:08;;;;;;;0.60;0.60;;;;;;;;;;5017928;28;20199;-83
2023/10/20 02:28:37;;;;;;;0.50;0.50;;;;;;;;;;5017423;28;20246;-83
2023/10/20 02:31:19;;;;;;;0.43;0.43;;;;;;;;;;5017819;28;20197;-84
2023/10/20 02:33:45;;;;;;;0.43;0.43;;;;;;;;;;5017511;28;20266;-84
2023/10/20 02:36:17;;;;;;;0.40;0.40;;;;;;;;;;5016803;28;20185;-84
2023/10/20 02:38:44;;;;;;;0.50;0.50;;;;;;;;;;5017422;28;20240;-85
2023/10/20 02:41:10;;;;;;;0.40;0.40;;;;;;;;;;5007395;28;20189;-86
2023/10/20 02:43:36;;;;;;;0.40;0.40;;;;;;;;;;4996264;28;20546;-85
2023/10/20 02:46:02;;;;;;;0.50;0.50;;;;;;;;;;4994306;28;20284;-85
2023/10/20 02:48:28;;;;;;;0.40;0.40;;;;;;;;;;4996839;28;20173;-86
2023/10/20 02:50:54;;;;;;;0.40;0.40;;;;;;;;;;4995627;28;20169;-86
2023/10/20 02:53:20;;;;;;;0.50;0.50;;;;;;;;;;4995409;28;20796;-85
2023/10/20 02:55:47;;;;;;;0.50;0.50;;;;;;;;;;4993063;28;20204;-85
2023/10/20 02:58:13;;;;;;;0.50;0.50;;;;;;;;;;4995379;28;20173;-86
2023/10/20 03:00:46;;;;;;;0.50;0.50;;;;;;;;;;4995154;28;20371;-85
2023/10/20 03:03:13;;;;;;;0.50;0.50;;;;;;;;;;4994623;28;20185;-86
2023/10/20 03:05:45;;;;;;;0.47;0.47;;;;;;;;;;4994849;28;20256;-86
2023/10/20 03:08:12;;;;;;;0.40;0.40;;;;;;;;;;4993860;28;20530;-86
2023/10/20 03:10:38;;;;;;;0.50;0.50;;;;;;;;;;4995058;28;20713;-85
2023/10/20 03:13:04;;;;;;;0.60;0.60;;;;;;;;;;4995798;28;20243;-87
2023/10/20 03:15:35;;;;;;;0.40;0.40;;;;;;;;;;4995761;28;20293;-84
2023/10/20 03:18:01;;;;;;;0.50;0.50;;;;;;;;;;4994333;28;20192;-86
2023/10/20 03:20:30;;;;;;;0.50;0.50;;;;;;;;;;4995067;28;20180;-86
2023/10/20 03:22:56;;;;;;;0.40;0.40;;;;;;;;;;4993738;28;20189;-84
2023/10/20 03:25:22;;;;;;;0.50;0.50;;;;;;;;;;4993087;28;20209;-86
2023/10/20 03:27:48;;;;;;;0.50;0.50;;;;;;;;;;4995038;28;20184;-85
2023/10/20 03:30:17;;;;;;;0.53;0.53;;;;;;;;;;4994288;28;20177;-88
2023/10/20 03:32:46;;;;;;;0.50;0.50;;;;;;;;;;4993887;28;20265;-86
2023/10/20 03:35:12;;;;;;;0.50;0.50;;;;;;;;;;4993444;28;20220;-86
2023/10/20 03:37:38;;;;;;;0.60;0.60;;;;;;;;;;4994408;28;20180;-86
2023/10/20 03:40:05;;;;;;;0.50;0.50;;;;;;;;;;4993602;28;20217;-86
2023/10/20 03:42:31;;;;;;;0.50;0.50;;;;;;;;;;4994817;28;20225;-86
2023/10/20 03:44:58;;;;;;;0.40;0.40;;;;;;;;;;4995341;28;20201;-87
2023/10/20 03:47:27;;;;;;;0.50;0.50;;;;;;;;;;4996560;28;20193;-86
2023/10/20 03:49:57;;;;;;;0.50;0.50;;;;;;;;;;4995972;28;20203;-87
2023/10/20 03:52:23;;;;;;;0.50;0.50;;;;;;;;;;4998458;28;20204;-85
2023/10/20 03:54:52;;;;;;;0.50;0.50;;;;;;;;;;5001829;28;20221;-84
2023/10/20 03:57:19;;;;;;;0.40;0.40;;;;;;;;;;5016237;28;20169;-85
2023/10/20 04:00:15;;;;;;;0.40;0.40;;;;;;;;;;5017124;28;20197;-82
2023/10/20 04:02:41;;;;;;;0.50;0.50;;;;;;;;;;4997883;28;20185;-85
2023/10/20 04:05:07;;;;;;;0.60;0.60;;;;;;;;;;5009442;28;20205;-84
2023/10/20 04:07:33;;;;;;;0.50;0.50;;;;;;;;;;5018451;28;20181;-84
2023/10/20 04:09:59;;;;;;;0.50;0.50;;;;;;;;;;5019194;28;20174;-85
2023/10/20 04:12:27;;;;;;;0.43;0.43;;;;;;;;;;5020147;28;20212;-83
2023/10/20 04:14:56;;;;;;;0.50;0.50;;;;;;;;;;5018729;28;20232;-86
2023/10/20 04:17:22;;;;;;;0.50;0.50;;;;;;;;;;4997960;28;20328;-87
2023/10/20 04:19:49;;;;;;;0.50;0.50;;;;;;;;;;4998793;28;20261;-87
2023/10/20 04:22:16;;;;;;;0.60;0.60;;;;;;;;;;4998300;28;20170;-86
2023/10/20 04:24:42;;;;;;;0.40;0.40;;;;;;;;;;4998598;28;20173;-86
2023/10/20 04:27:21;;;;;;;0.43;0.43;;;;;;;;;;4998188;28;20165;-87
2023/10/20 04:43:42;;;;;;;0.40;0.40;;;;;;;;;;4998772;28;20742;-86
2023/10/20 05:03:11;;;;;;;0.40;0.40;;;;;;;;;;4982368;28;20231;-85
2023/10/20 05:08:17;;;;;;;0.50;0.50;;;;;;;;;;4996978;28;20181;-88
2023/10/20 05:10:43;;;;;;;0.57;0.57;;;;;;;;;;4988348;28;20695;-88
2023/10/20 05:13:09;;;;;;;0.40;0.40;;;;;;;;;;5000570;28;20276;-88
2023/10/20 05:15:43;;;;;;;0.40;0.40;;;;;;;;;;4994848;28;20228;-88
2023/10/20 05:18:14;;;;;;;0.50;0.50;;;;;;;;;;4978784;28;20639;-88
2023/10/20 05:20:40;;;;;;;0.50;0.50;;;;;;;;;;4989088;28;20173;-88
2023/10/20 05:23:06;;;;;;;0.43;0.43;;;;;;;;;;4990717;28;20235;-88
2023/10/20 05:25:35;;;;;;;0.43;0.43;;;;;;;;;;4996038;28;20201;-88
2023/10/20 05:28:01;;;;;;;0.47;0.47;;;;;;;;;;4995236;28;20181;-85
2023/10/20 05:30:27;;;;;;;0.50;0.50;;;;;;;;;;4996719;28;20231;-87
2023/10/20 05:32:54;;;;;;;0.40;0.40;;;;;;;;;;4996905;28;20184;-89
2023/10/20 05:35:20;;;;;;;0.50;0.50;;;;;;;;;;4997177;28;20213;-90
2023/10/20 05:37:46;;;;;;;0.50;0.50;;;;;;;;;;4998538;28;20181;-88
2023/10/20 05:40:15;;;;;;;0.50;0.50;;;;;;;;;;4999541;28;20180;-92
2023/10/20 05:42:42;;;;;;;0.53;0.53;;;;;;;;;;5004047;28;20737;-92
2023/10/20 05:45:17;;;;;;;0.50;0.50;;;;;;;;;;5001059;28;20209;-91
2023/10/20 05:47:43;;;;;;;0.40;0.40;;;;;;;;;;4998967;28;20714;-90
2023/10/20 05:50:09;;;;;;;0.60;0.60;;;;;;;;;;4995002;28;20211;-90
2023/10/20 05:52:35;;;;;;;0.40;0.40;;;;;;;;;;5010422;28;20185;-86
2023/10/20 05:55:03;;;;;;;0.37;0.37;;;;;;;;;;5017817;28;20223;-91
2023/10/20 05:57:29;;;;;;;0.47;0.47;;;;;;;;;;5018610;28;20257;-89
2023/10/20 06:05:09;;;;;;;0.50;0.50;;;;;;;;;;5015961;28;20227;-91
2023/10/20 06:07:38;;;;;;;0.50;0.50;;;;;;;;;;5011400;28;20173;-92
2023/10/20 06:10:05;;;;;;;0.50;0.50;;;;;;;;;;5010957;28;20178;-89
2023/10/20 06:12:31;;;;;;;0.40;0.40;;;;;;;;;;5010664;28;20172;-91
2023/10/20 06:14:59;;;;;;;0.57;0.57;;;;;;;;;;5016003;28;20216;-92
2023/10/20 06:17:25;;;;;;;0.50;0.50;;;;;;;;;;5023398;28;20173;-92
2023/10/20 06:19:52;;;;;;;0.40;0.40;;;;;;;;;;5026441;28;20188;-89
2023/10/20 06:22:24;;;;;;;0.33;0.33;;;;;;;;;;5037629;28;20188;-89
2023/10/20 06:24:50;;;;;;;0.50;0.50;;;;;;;;;;5036931;28;20200;-88
2023/10/20 06:27:16;;;;;;;0.50;0.50;;;;;;;;;;5019795;28;20192;-92
2023/10/20 06:29:55;;;;;;;0.40;0.40;;;;;;;;;;5014565;28;20176;-90
2023/10/20 06:32:32;;;;;;;0.60;0.60;;;;;;;;;;5006473;28;20178;-93
2023/10/20 06:35:02;;;;;;;0.40;0.40;;;;;;;;;;5007864;28;20228;-91
2023/10/20 06:37:30;;;;;;;0.60;0.60;;;;;;;;;;5005330;28;20645;-86
2023/10/20 06:39:56;;;;;;;0.50;0.50;;;;;;;;;;5009631;28;20180;-90
2023/10/20 06:42:24;;;;;;;0.50;0.50;;;;;;;;;;5010146;28;20181;-92
2023/10/20 06:44:50;;;;;;;0.40;0.40;;;;;;;;;;5009951;28;20196;-92
2023/10/20 06:47:16;;;;;;;0.47;0.47;;;;;;;;;;5006354;28;20188;-86
2023/10/20 06:49:42;;;;;;;0.50;0.50;;;;;;;;;;5028341;28;20169;-90
2023/10/20 06:52:09;;;;;;;0.50;0.50;;;;;;;;;;5023737;28;20179;-87
2023/10/20 06:54:34;;;;;;;0.50;0.50;;;;;;;;;;5017133;28;20228;-88
2023/10/20 06:57:00;;;;;;;0.47;0.47;;;;;;;;;;5004480;28;20176;-87
2023/10/20 06:59:26;;;;;;;0.50;0.50;;;;;;;;;;5006329;28;20169;-87
2023/10/20 07:01:57;;;;;;;0.50;0.50;;;;;;;;;;5011440;28;20190;-86
2023/10/20 07:04:23;;;;;;;0.60;0.60;;;;;;;;;;5023370;28;20196;-85
2023/10/20 07:06:51;;;;;;;0.40;0.40;;;;;;;;;;5033268;28;20200;-85
2023/10/20 07:09:17;;;;;;;0.40;0.40;;;;;;;;;;5014032;28;20188;-84
2023/10/20 07:11:43;;;;;;;0.50;0.50;;;;;;;;;;5015507;28;20256;-86
2023/10/20 07:14:10;;;;;;;0.50;0.50;;;;;;;;;;5014045;28;20185;-85
2023/10/20 07:16:36;;;;;;;0.40;0.40;;;;;;;;;;5014829;28;20213;-85
2023/10/20 07:19:03;;;;;;;0.60;0.60;;;;;;;;;;5014039;28;20244;-87
2023/10/20 07:21:30;;;;;;;0.50;0.50;;;;;;;;;;5014037;28;20205;-86
2023/10/20 07:23:56;;;;;;;0.60;0.60;;;;;;;;;;5001275;28;20263;-86
2023/10/20 07:26:23;;;;;;;0.70;0.70;;;;;;;;;;4996681;28;20197;-85
2023/10/20 07:28:49;;;;;;;0.50;0.50;;;;;;;;;;4998044;28;20240;-84
2023/10/20 07:31:16;;;;;;;0.50;0.50;;;;;;;;;;4996901;28;20181;-88
2023/10/20 07:33:42;;;;;;;0.47;0.47;;;;;;;;;;4996553;28;20827;-87
2023/10/20 07:36:09;;;;;;;0.40;0.40;;;;;;;;;;4995105;28;20293;-89
2023/10/20 07:38:35;;;;;;;0.50;0.50;;;;;;;;;;4997728;28;20229;-85
2023/10/20 07:41:07;;;;;;;0.40;0.40;;;;;;;;;;4997715;28;20173;-88
2023/10/20 07:43:33;;;;;;;0.60;0.60;;;;;;;;;;5000418;28;20638;-87
2023/10/20 07:46:00;;;;;;;0.50;0.50;;;;;;;;;;5000179;28;20201;-86
2023/10/20 07:48:30;;;;;;;0.50;0.50;;;;;;;;;;5000720;28;20173;-85
2023/10/20 07:50:59;;;;;;;0.50;0.50;;;;;;;;;;5002563;28;20176;-91
2023/10/20 07:53:25;;;;;;;0.40;0.40;;;;;;;;;;5001737;28;20220;-84
2023/10/20 07:55:51;;;;;;;0.47;0.47;;;;;;;;;;5003042;28;20193;-87
2023/10/20 07:58:17;;;;;;;0.40;0.40;;;;;;;;;;5010450;28;20192;-87
2023/10/20 08:00:44;;;;;;;0.40;0.40;;;;;;;;;;5022635;28;20208;-86
2023/10/20 08:03:11;;;;;;;0.50;0.50;;;;;;;;;;5025909;28;20192;-87
2023/10/20 08:05:37;;;;;;;0.50;0.50;;;;;;;;;;5019032;28;20705;-87
2023/10/20 08:08:04;;;;;;;0.50;0.50;;;;;;;;;;5019859;28;20180;-86
2023/10/20 08:10:30;;;;;;;0.40;0.40;;;;;;;;;;5019066;28;20180;-86
2023/10/20 08:12:56;;;;;;;0.50;0.50;;;;;;;;;;5021247;28;20224;-85
2023/10/20 08:15:22;;;;;;;0.40;0.40;;;;;;;;;;5021841;28;20271;-89
2023/10/20 08:17:49;;;;;;;0.40;0.40;;;;;;;;;;5020804;28;20180;-88
2023/10/20 08:20:16;;;;;;;0.40;0.40;;;;;;;;;;5018576;28;20184;-89
2023/10/20 08:22:43;;;;;;;0.40;0.40;;;;;;;;;;5010297;28;20184;-87
2023/10/20 08:25:09;;;;;;;0.40;0.40;;;;;;;;;;5009586;28;20185;-85
2023/10/20 08:27:35;;;;;;;0.50;0.50;;;;;;;;;;5020213;28;20241;-86
2023/10/20 08:30:01;;;;;;;0.50;0.50;;;;;;;;;;5020527;28;20284;-89
2023/10/20 08:32:27;;;;;;;0.40;0.40;;;;;;;;;;5020378;28;20181;-85
2023/10/20 08:34:53;;;;;;;0.50;0.50;;;;;;;;;;5024926;28;20280;-83
2023/10/20 08:37:19;;;;;;;0.40;0.40;;;;;;;;;;5023923;28;20168;-87
2023/10/20 08:39:45;;;;;;;0.40;0.40;;;;;;;;;;5037464;28;20165;-86
2023/10/20 08:42:18;;;;;;;0.50;0.50;;;;;;;;;;5031439;28;20734;-87
2023/10/20 08:44:45;;;;;;;0.50;0.50;;;;;;;;;;5016582;28;20192;-89
2023/10/20 08:47:14;;;;;;;0.40;0.40;;;;;;;;;;5003810;28;20192;-88
2023/10/20 08:49:41;;;;;;;0.40;0.40;;;;;;;;;;5000843;28;20192;-88
2023/10/20 08:52:10;;;;;;;0.47;0.47;;;;;;;;;;5000660;28;20185;-87
2023/10/20 08:54:36;;;;;;;0.40;0.40;;;;;;;;;;5011501;28;20192;-88
2023/10/20 08:57:04;;;;;;;0.47;0.47;;;;;;;;;;5019293;28;20227;-87
2023/10/20 08:59:31;;;;;;;0.50;0.50;;;;;;;;;;5017455;28;20192;-85
2023/10/20 09:01:58;;;;;;;0.40;0.40;;;;;;;;;;5020572;28;20185;-86
2023/10/20 09:04:25;;;;;;;0.50;0.50;;;;;;;;;;5009260;28;20572;-87
2023/10/20 09:06:52;;;;;;;0.40;0.40;;;;;;;;;;5010263;28;20205;-87
2023/10/20 09:09:19;;;;;;;0.40;0.40;;;;;;;;;;5020037;28;20185;-88
2023/10/20 09:11:45;;;;;;;0.40;0.40;;;;;;;;;;5019381;28;20189;-89
2023/10/20 09:14:14;;;;;;;0.40;0.40;;;;;;;;;;5018836;28;20211;-87
2023/10/20 09:16:41;;;;;;;0.43;0.43;;;;;;;;;;5018661;28;20211;-86
2023/10/20 09:19:09;;;;;;;0.30;0.30;;;;;;;;;;5015827;28;20196;-88
2023/10/20 09:21:39;;;;;;;0.40;0.40;;;;;;;;;;4999113;28;20589;-88
2023/10/20 09:24:07;;;;;;;0.40;0.40;;;;;;;;;;4999263;28;20205;-88
2023/10/20 09:26:35;;;;;;;0.40;0.40;;;;;;;;;;4998345;28;20204;-88
2023/10/20 09:29:01;;;;;;;0.33;0.33;;;;;;;;;;4998724;28;20267;-88
2023/10/20 09:31:27;;;;;;;0.40;0.40;;;;;;;;;;4998711;28;20531;-88
2023/10/20 09:33:53;;;;;;;0.50;0.50;;;;;;;;;;4998349;28;20220;-88
2023/10/20 09:36:20;;;;;;;0.50;0.50;;;;;;;;;;4998016;28;20197;-86
2023/10/20 09:38:50;;;;;;;0.40;0.40;;;;;;;;;;4997601;28;20185;-87
2023/10/20 09:41:17;;;;;;;0.50;0.50;;;;;;;;;;5016562;28;20189;-87
2023/10/20 09:43:47;;;;;;;0.40;0.40;;;;;;;;;;5011624;28;20185;-86
2023/10/20 09:46:18;;;;;;;0.40;0.40;;;;;;;;;;4998532;28;20221;-85
2023/10/20 09:48:46;;;;;;;0.47;0.47;;;;;;;;;;4999376;28;20189;-85
2023/10/20 09:51:12;;;;;;;0.43;0.43;;;;;;;;;;4997254;28;20808;-86
2023/10/20 09:53:40;;;;;;;0.53;0.53;;;;;;;;;;4998108;28;20177;-85
2023/10/20 09:56:06;;;;;;;0.60;0.60;;;;;;;;;;4997897;28;20197;-86
2023/10/20 09:58:36;;;;;;;0.40;0.40;;;;;;;;;;4997873;28;20224;-86
2023/10/20 10:01:03;;;;;;;0.60;0.60;;;;;;;;;;5000189;28;20185;-85
2023/10/20 10:03:30;;;;;;;0.50;0.50;;;;;;;;;;4998322;28;20621;-88
2023/10/20 10:05:56;;;;;;;0.43;0.43;;;;;;;;;;4998537;28;20241;-86
2023/10/20 10:08:23;;;;;;;0.40;0.40;;;;;;;;;;4998543;28;20181;-87
2023/10/20 10:10:49;;;;;;;0.50;0.50;;;;;;;;;;5013497;28;20165;-87
2023/10/20 10:13:16;;;;;;;0.50;0.50;;;;;;;;;;5017984;28;20201;-86
2023/10/20 10:15:43;;;;;;;0.47;0.47;;;;;;;;;;5017533;28;20221;-85
2023/10/20 10:18:13;;;;;;;0.40;0.40;;;;;;;;;;5015313;28;20215;-86
2023/10/20 10:20:50;;;;;;;0.40;0.40;;;;;;;;;;5000140;28;20173;-86
2023/10/20 10:23:16;;;;;;;0.40;0.40;;;;;;;;;;5001944;28;20196;-84
2023/10/20 10:25:47;;;;;;;0.50;0.50;;;;;;;;;;5009323;28;20358;-87
2023/10/20 10:28:13;;;;;;;0.43;0.43;;;;;;;;;;4998051;28;20228;-85
2023/10/20 10:30:40;;;;;;;0.40;0.40;;;;;;;;;;4997219;28;20173;-86
2023/10/20 10:33:08;;;;;;;0.50;0.50;;;;;;;;;;4997692;28;20643;-88
2023/10/20 10:35:34;;;;;;;0.50;0.50;;;;;;;;;;5000093;28;20232;-85
2023/10/20 10:38:00;;;;;;;0.40;0.40;;;;;;;;;;5012096;28;20663;-86
2023/10/20 10:40:26;;;;;;;0.40;0.40;;;;;;;;;;5012573;28;20200;-84
2023/10/20 10:42:53;;;;;;;0.40;0.40;;;;;;;;;;5012504;28;20176;-84
2023/10/20 10:45:34;;;;;;;0.40;0.40;;;;;;;;;;5011102;28;20204;-84
2023/10/20 10:48:03;;;;;;;0.50;0.50;;;;;;;;;;4995023;28;20398;-85
2023/10/20 10:50:29;;;;;;;0.40;0.40;;;;;;;;;;4996619;28;20181;-84
2023/10/20 10:52:54;;;;;;;0.40;0.40;;;;;;;;;;4997941;28;20284;-85
2023/10/20 10:55:21;;;;;;;0.40;0.40;;;;;;;;;;4996105;28;20359;-87
2023/10/20 10:57:47;;;;;;;0.50;0.50;;;;;;;;;;4996017;28;20610;-85
2023/10/20 11:00:15;;;;;;;0.50;0.50;;;;;;;;;;4997057;28;20317;-85
2023/10/20 11:02:42;;;;;;;0.40;0.40;;;;;;;;;;4996326;28;20176;-85
2023/10/20 11:05:08;;;;;;;0.50;0.50;;;;;;;;;;4994791;28;20205;-83
2023/10/20 11:07:34;;;;;;;0.40;0.40;;;;;;;;;;4995722;28;20231;-85
2023/10/20 11:10:01;;;;;;;0.43;0.43;;;;;;;;;;4997081;28;20185;-86
2023/10/20 11:12:27;;;;;;;0.40;0.40;;;;;;;;;;4996108;28;20177;-85
2023/10/20 11:15:00;;;;;;;0.40;0.40;;;;;;;;;;4996310;28;20209;-85
2023/10/20 11:17:27;;;;;;;0.40;0.40;;;;;;;;;;4997537;28;20188;-86
2023/10/20 11:19:53;;;;;;;0.40;0.40;;;;;;;;;;4997938;28;20196;-86
2023/10/20 11:22:19;;;;;;;0.50;0.50;;;;;;;;;;4997677;28;20177;-86
2023/10/20 11:24:54;;;;;;;0.40;0.40;;;;;;;;;;4996843;28;20273;-87
2023/10/20 11:27:20;;;;;;;0.50;0.50;;;;;;;;;;4997853;28;20586;-88
2023/10/20 11:29:49;;;;;;;0.40;0.40;;;;;;;;;;4998364;28;20173;-84
2023/10/20 11:32:15;;;;;;;0.50;0.50;;;;;;;;;;4998728;28;20228;-86
2023/10/20 11:34:41;;;;;;;0.50;0.50;;;;;;;;;;4997363;28;20201;-84
2023/10/20 11:37:07;;;;;;;0.40;0.40;;;;;;;;;;4997400;28;20177;-87
2023/10/20 11:39:36;;;;;;;0.47;0.47;;;;;;;;;;4998828;28;20216;-85
2023/10/20 11:42:02;;;;;;;0.50;0.50;;;;;;;;;;4996967;28;20344;-87
2023/10/20 11:44:28;;;;;;;0.40;0.40;;;;;;;;;;4997142;28;20253;-86
2023/10/20 11:46:55;;;;;;;0.40;0.40;;;;;;;;;;4996597;28;20188;-85
2023/10/20 11:49:24;;;;;;;0.40;0.40;;;;;;;;;;4997142;28;20177;-86
2023/10/20 11:51:51;;;;;;;0.40;0.40;;;;;;;;;;4996447;28;20185;-86
2023/10/20 11:54:17;;;;;;;0.50;0.50;;;;;;;;;;4997503;28;20201;-87
2023/10/20 11:56:44;;;;;;;0.50;0.50;;;;;;;;;;4998485;28;20209;-86
2023/10/20 11:59:11;;;;;;;0.40;0.40;;;;;;;;;;4999968;28;20253;-85
2023/10/20 12:01:38;;;;;;;0.50;0.50;;;;;;;;;;5001371;28;20193;-85
2023/10/20 12:04:08;;;;;;;0.40;0.40;;;;;;;;;;4997178;28;20189;-87
2023/10/20 12:06:36;;;;;;;0.50;0.50;;;;;;;;;;4997187;28;20281;-84
2023/10/20 12:09:02;;;;;;;0.50;0.50;;;;;;;;;;4995777;28;20232;-86
2023/10/20 12:11:28;;;;;;;0.40;0.40;;;;;;;;;;4996414;28;20181;-84
2023/10/20 12:13:54;;;;;;;0.47;0.47;;;;;;;;;;5003089;28;20254;-85
2023/10/20 12:16:24;;;;;;;0.50;0.50;;;;;;;;;;5008567;28;20200;-86
2023/10/20 12:18:51;;;;;;;0.40;0.40;;;;;;;;;;5009324;28;20208;-85
2023/10/20 12:21:17;;;;;;;0.50;0.50;;;;;;;;;;5003914;28;20240;-83
2023/10/20 12:23:43;;;;;;;0.40;0.40;;;;;;;;;;5006220;28;20204;-82
2023/10/20 12:26:11;;;;;;;0.40;0.40;;;;;;;;;;5039589;28;20276;-81
2023/10/20 12:28:38;;;;;;;0.37;0.37;;;;;;;;;;5028071;28;20161;-86
2023/10/20 12:31:06;;;;;;;0.40;0.40;;;;;;;;;;5037697;28;20188;-82
2023/10/20 12:33:32;;;;;;;0.40;0.40;;;;;;;;;;5037353;28;20177;-86
2023/10/20 12:35:58;;;;;;;0.30;0.30;;;;;;;;;;5040075;28;20204;-84
2023/10/20 12:38:25;;;;;;;0.40;0.40;;;;;;;;;;5033774;28;20211;-81
2023/10/20 12:40:53;;;;;;;0.40;0.40;;;;;;;;;;5015961;28;20165;-82
2023/10/20 12:43:20;;;;;;;0.47;0.47;;;;;;;;;;5016394;28;20185;-83
2023/10/20 12:45:46;;;;;;;0.50;0.50;;;;;;;;;;5013212;28;20208;-83
2023/10/20 12:48:12;;;;;;;0.40;0.40;;;;;;;;;;5005722;28;20169;-84
2023/10/20 12:50:39;;;;;;;0.40;0.40;;;;;;;;;;5019144;28;20177;-82
2023/10/20 12:53:07;;;;;;;0.30;0.30;;;;;;;;;;5017925;28;20199;-84
2023/10/20 12:55:33;;;;;;;0.40;0.40;;;;;;;;;;5018044;28;20215;-83
2023/10/20 12:57:59;;;;;;;0.40;0.40;;;;;;;;;;5018328;28;20180;-82
2023/10/20 13:00:25;;;;;;;0.40;0.40;;;;;;;;;;5014837;28;20180;-87
2023/10/20 13:02:53;;;;;;;0.40;0.40;;;;;;;;;;5016404;28;20192;-83
2023/10/20 13:05:21;;;;;;;0.43;0.43;;;;;;;;;;5016890;28;20295;-84
2023/10/20 13:07:47;;;;;;;0.50;0.50;;;;;;;;;;5024374;28;20248;-84
2023/10/20 13:10:13;;;;;;;0.40;0.40;;;;;;;;;;5014356;28;20177;-84
2023/10/20 13:12:39;;;;;;;0.40;0.40;;;;;;;;;;5021695;28;20181;-84
2023/10/20 13:15:05;;;;;;;0.40;0.40;;;;;;;;;;5029881;28;20232;-82
2023/10/20 13:17:33;;;;;;;0.40;0.40;;;;;;;;;;5031562;28;20203;-80
2023/10/20 13:20:00;;;;;;;0.40;0.40;;;;;;;;;;5037004;28;20184;-85
2023/10/20 13:22:26;;;;;;;0.40;0.40;;;;;;;;;;5010295;28;20191;-83
2023/10/20 13:24:52;;;;;;;0.33;0.33;;;;;;;;;;5017099;28;20208;-83
2023/10/20 13:27:19;;;;;;;0.40;0.40;;;;;;;;;;5017321;28;20278;-83
2023/10/20 13:29:48;;;;;;;0.40;0.40;;;;;;;;;;5018307;28;20263;-84
2023/10/20 13:32:14;;;;;;;0.53;0.53;;;;;;;;;;5017618;28;20206;-85
2023/10/20 13:34:40;;;;;;;0.40;0.40;;;;;;;;;;5018853;28;20641;-86
2023/10/20 13:37:06;;;;;;;0.40;0.40;;;;;;;;;;5035043;28;20200;-83
2023/10/20 13:39:32;;;;;;;0.40;0.40;;;;;;;;;;5027857;28;20181;-84
2023/10/20 13:41:58;;;;;;;0.40;0.40;;;;;;;;;;5013189;28;20173;-84
2023/10/20 13:44:24;;;;;;;0.43;0.43;;;;;;;;;;5020059;28;20164;-84
2023/10/20 13:46:50;;;;;;;0.40;0.40;;;;;;;;;;5015833;28;20201;-86
2023/10/20 13:49:17;;;;;;;0.40;0.40;;;;;;;;;;5004034;28;20195;-86
2023/10/20 13:51:43;;;;;;;0.60;0.60;;;;;;;;;;5017472;28;20271;-85
2023/10/20 13:54:09;;;;;;;0.40;0.40;;;;;;;;;;5016742;28;20227;-85
2023/10/20 13:56:35;;;;;;;0.40;0.40;;;;;;;;;;5016842;28;20212;-85
2023/10/20 13:59:01;;;;;;;0.47;0.47;;;;;;;;;;5016352;28;20185;-85
2023/10/20 14:01:27;;;;;;;0.47;0.47;;;;;;;;;;5017344;28;20180;-85
2023/10/20 14:03:53;;;;;;;0.40;0.40;;;;;;;;;;5018085;28;20204;-83
2023/10/20 14:06:19;;;;;;;0.40;0.40;;;;;;;;;;5016745;28;20224;-85
2023/10/20 14:08:45;;;;;;;0.40;0.40;;;;;;;;;;5018758;28;20173;-86
2023/10/20 14:11:12;;;;;;;0.40;0.40;;;;;;;;;;5018442;28;20663;-86
2023/10/20 14:13:38;;;;;;;0.40;0.40;;;;;;;;;;5017816;28;20669;-86
2023/10/20 14:16:04;;;;;;;0.50;0.50;;;;;;;;;;5023925;28;20295;-85
2023/10/20 14:18:30;;;;;;;0.40;0.40;;;;;;;;;;5023086;28;20199;-83
2023/10/20 14:20:56;;;;;;;0.40;0.40;;;;;;;;;;5030174;28;20243;-81
2023/10/20 14:23:27;;;;;;;0.40;0.40;;;;;;;;;;5030566;28;20244;-83
2023/10/20 14:25:56;;;;;;;0.50;0.50;;;;;;;;;;5028919;28;20230;-82
2023/10/20 14:28:23;;;;;;;0.50;0.50;;;;;;;;;;5027841;28;20183;-84
2023/10/20 14:30:54;;;;;;;0.40;0.40;;;;;;;;;;5025555;28;20243;-85
2023/10/20 14:33:20;;;;;;;0.50;0.50;;;;;;;;;;5029645;28;20191;-84
2023/10/20 14:35:46;;;;;;;0.50;0.50;;;;;;;;;;5024572;28;20216;-84
2023/10/20 14:38:12;;;;;;;0.40;0.40;;;;;;;;;;5022979;28;20180;-83
2023/10/20 14:40:38;;;;;;;0.50;0.50;;;;;;;;;;5018801;28;20274;-82
2023/10/20 14:43:04;;;;;;;0.50;0.50;;;;;;;;;;5018957;28;20677;-82
2023/10/20 14:45:30;;;;;;;0.40;0.40;;;;;;;;;;5017757;28;20202;-81
2023/10/20 14:47:56;;;;;;;0.50;0.50;;;;;;;;;;5018248;28;20259;-82
2023/10/20 14:50:23;;;;;;;0.40;0.40;;;;;;;;;;5019345;28;20573;-82
2023/10/20 14:52:53;;;;;;;0.50;0.50;;;;;;;;;;5018939;28;20179;-83
2023/10/20 14:55:19;;;;;;;0.43;0.43;;;;;;;;;;5018881;28;20208;-83
2023/10/20 14:57:45;;;;;;;0.50;0.50;;;;;;;;;;5018092;28;20183;-81
2023/10/20 15:00:11;;;;;;;0.40;0.40;;;;;;;;;;5017737;28;20184;-83
2023/10/20 15:02:40;;;;;;;0.60;0.60;;;;;;;;;;5016489;28;20184;-80
2023/10/20 15:05:06;;;;;;;0.43;0.43;;;;;;;;;;5014243;28;20225;-82
2023/10/20 15:07:35;;;;;;;0.40;0.40;;;;;;;;;;5015942;28;20204;-82
2023/10/20 15:10:02;;;;;;;0.50;0.50;;;;;;;;;;5016768;28;20669;-84
2023/10/20 15:12:29;;;;;;;0.43;0.43;;;;;;;;;;5017250;28;20260;-82
2023/10/20 15:14:55;;;;;;;0.50;0.50;;;;;;;;;;5018137;28;20220;-84
2023/10/20 15:17:21;;;;;;;0.40;0.40;;;;;;;;;;5018055;28;20708;-84
2023/10/20 15:19:47;;;;;;;0.50;0.50;;;;;;;;;;5017788;28;20191;-84
2023/10/20 15:22:13;;;;;;;0.50;0.50;;;;;;;;;;5016979;28;20180;-84